Time;durP1;ratioP1;P1;durP2;ratioP2;P2;SDS_P1;SDS_P2;PMS_P1;PMS_P2;Temp;Humidity;BMP_temperature;BMP_pressure;BME280_temperature;BME280_humidity;BME280_pressure;Samples;Min_cycle;Max_cycle;Signal;HPM_P1;HPM_P2
2021/12/12 00:01:12;;;;;;;9.15;5.00;;;4.30;99.90;;;;;;4874057;29;20040;-79
2021/12/12 00:03:42;;;;;;;7.05;4.65;;;4.40;99.90;;;;;;4890993;29;20036;-80
2021/12/12 00:06:32;;;;;;;7.90;4.38;;;4.40;99.90;;;;;;4890509;29;20037;-78
2021/12/12 00:09:29;;;;;;;6.78;4.00;;;4.40;99.90;;;;;;4883793;29;20069;-82
2021/12/12 00:12:02;;;;;;;8.00;5.22;;;4.30;99.90;;;;;;4872242;29;20068;-78
2021/12/12 00:14:31;;;;;;;6.97;4.97;;;4.30;99.90;;;;;;4887780;29;20220;-80
2021/12/12 00:16:59;;;;;;;8.20;5.10;;;4.40;99.90;;;;;;4875204;29;20108;-78
2021/12/12 00:19:28;;;;;;;7.60;5.00;;;4.30;99.90;;;;;;4890911;29;20064;-79
2021/12/12 00:21:57;;;;;;;7.90;5.13;;;4.30;99.90;;;;;;4889924;29;20464;-79
2021/12/12 00:24:24;;;;;;;8.50;5.18;;;4.30;99.90;;;;;;4889758;29;20153;-79
2021/12/12 00:26:53;;;;;;;9.63;5.30;;;4.30;99.90;;;;;;4905760;29;20029;-80
2021/12/12 00:29:21;;;;;;;11.05;5.65;;;4.20;99.90;;;;;;4891016;29;20147;-79
2021/12/12 00:31:49;;;;;;;11.10;6.15;;;4.20;99.90;;;;;;4890331;29;20041;-79
2021/12/12 00:34:15;;;;;;;11.88;6.47;;;4.20;99.90;;;;;;4904344;29;20098;-79
2021/12/12 00:36:45;;;;;;;9.10;5.75;;;4.20;99.90;;;;;;4904629;29;20044;-77
2021/12/12 00:39:19;;;;;;;10.30;6.00;;;4.20;99.90;;;;;;4913028;29;20053;-78
2021/12/12 00:41:50;;;;;;;9.75;6.03;;;4.20;99.90;;;;;;4901150;29;20033;-79
2021/12/12 00:44:16;;;;;;;11.20;6.38;;;4.10;99.90;;;;;;4894575;29;20117;-79
2021/12/12 00:46:43;;;;;;;12.05;6.38;;;4.10;99.90;;;;;;4891003;29;20048;-79
2021/12/12 00:49:12;;;;;;;11.38;6.80;;;4.10;99.90;;;;;;4890602;29;20060;-78
2021/12/12 00:51:42;;;;;;;12.75;6.43;;;4.10;99.90;;;;;;4889489;29;20037;-78
2021/12/12 00:54:10;;;;;;;10.98;6.00;;;4.10;99.90;;;;;;4889087;29;20037;-79
2021/12/12 00:56:36;;;;;;;12.35;7.00;;;4.10;99.90;;;;;;4880552;29;20030;-79
2021/12/12 00:59:04;;;;;;;12.35;6.05;;;4.10;99.90;;;;;;4870389;29;20061;-79
2021/12/12 01:01:35;;;;;;;11.77;6.30;;;4.10;99.90;;;;;;4870115;29;20227;-80
2021/12/12 01:04:08;;;;;;;14.68;6.40;;;4.10;99.90;;;;;;4871278;29;20462;-79
2021/12/12 01:06:35;;;;;;;11.82;5.90;;;4.20;99.90;;;;;;4871546;29;20067;-79
2021/12/12 01:09:07;;;;;;;12.05;6.72;;;4.10;99.90;;;;;;4873120;29;20058;-80
2021/12/12 01:11:37;;;;;;;13.73;6.78;;;4.10;99.90;;;;;;4874309;29;20029;-79
2021/12/12 01:14:07;;;;;;;13.30;6.47;;;4.20;99.90;;;;;;4854955;29;20025;-79
2021/12/12 01:17:02;;;;;;;11.75;6.10;;;4.20;99.90;;;;;;4873531;29;20033;-80
2021/12/12 01:19:51;;;;;;;12.45;6.88;;;4.10;99.90;;;;;;4871409;29;20448;-82
2021/12/12 01:22:28;;;;;;;11.27;6.78;;;4.10;99.90;;;;;;4872560;29;20093;-80
2021/12/12 01:25:00;;;;;;;11.48;6.05;;;4.10;99.90;;;;;;4854976;29;20059;-80
2021/12/12 01:27:27;;;;;;;12.43;7.40;;;4.10;99.90;;;;;;4872153;29;20072;-80
2021/12/12 01:29:53;;;;;;;11.45;7.15;;;4.10;99.90;;;;;;4889725;29;20037;-80
2021/12/12 01:32:26;;;;;;;10.60;6.68;;;4.10;99.90;;;;;;4888377;29;20064;-79
2021/12/12 01:34:58;;;;;;;14.30;6.13;;;4.10;99.90;;;;;;4888413;29;20037;-80
2021/12/12 01:40:09;;;;;;;10.70;5.75;;;4.10;99.90;;;;;;4869519;29;20038;-81
2021/12/12 01:42:43;;;;;;;12.05;6.45;;;4.10;99.90;;;;;;4869633;29;20312;-80
2021/12/12 01:45:31;;;;;;;12.50;6.28;;;4.10;99.90;;;;;;4869793;29;20033;-81
2021/12/12 01:48:02;;;;;;;10.65;5.57;;;4.20;99.90;;;;;;4854197;29;20086;-81
2021/12/12 01:50:40;;;;;;;11.25;5.75;;;4.10;99.90;;;;;;4870306;29;20032;-80
2021/12/12 01:53:11;;;;;;;7.90;5.47;;;4.10;99.90;;;;;;4870427;29;20054;-80
2021/12/12 01:55:47;;;;;;;9.38;5.68;;;4.10;99.90;;;;;;4885936;29;20129;-81
2021/12/12 01:58:17;;;;;;;10.45;5.72;;;4.20;99.90;;;;;;4877189;29;20037;-80
2021/12/12 02:01:18;;;;;;;10.52;5.60;;;4.10;99.90;;;;;;4883329;29;20052;-81
2021/12/12 02:03:52;;;;;;;8.98;5.57;;;4.20;99.90;;;;;;4866729;29;20344;-80
2021/12/12 02:06:22;;;;;;;11.57;5.57;;;4.20;99.90;;;;;;4884050;29;20332;-81
2021/12/12 02:08:57;;;;;;;9.38;5.60;;;4.20;99.90;;;;;;4870586;29;20041;-80
2021/12/12 02:11:28;;;;;;;10.57;4.93;;;4.20;99.90;;;;;;4868925;29;20036;-80
2021/12/12 02:14:08;;;;;;;8.35;5.30;;;4.20;99.90;;;;;;4884685;29;20037;-80
2021/12/12 02:16:44;;;;;;;8.40;5.00;;;4.20;99.90;;;;;;4869233;29;20029;-81
2021/12/12 02:19:19;;;;;;;9.73;4.85;;;4.20;99.90;;;;;;4874460;29;20053;-80
2021/12/12 02:22:24;;;;;;;10.00;5.28;;;4.10;99.90;;;;;;4888168;29;20148;-80
2021/12/12 02:35:52;;;;;;;7.15;4.00;;;4.10;99.90;;;;;;4903283;29;20055;-80
2021/12/12 02:38:22;;;;;;;10.10;4.43;;;4.20;99.90;;;;;;4888347;29;20037;-80
2021/12/12 02:40:57;;;;;;;7.70;3.67;;;4.20;99.90;;;;;;4900171;29;20226;-81
2021/12/12 02:43:26;;;;;;;6.57;3.72;;;4.10;99.90;;;;;;4888875;29;20040;-81
2021/12/12 02:45:55;;;;;;;5.85;3.50;;;4.20;99.90;;;;;;4903270;29;20056;-80
2021/12/12 02:48:31;;;;;;;5.93;3.67;;;4.10;99.90;;;;;;4888309;29;20060;-80
2021/12/12 02:51:01;;;;;;;5.57;3.22;;;4.10;99.90;;;;;;4888711;29;20063;-80
2021/12/12 02:53:38;;;;;;;6.32;3.38;;;4.10;99.90;;;;;;4887161;29;20033;-79
2021/12/12 02:56:14;;;;;;;5.93;3.60;;;4.10;99.90;;;;;;4888651;29;20057;-80
2021/12/12 02:58:41;;;;;;;7.60;3.80;;;4.10;99.90;;;;;;4888808;29;20348;-80
2021/12/12 03:01:15;;;;;;;6.40;3.67;;;4.10;99.90;;;;;;4878108;29;20021;-79
2021/12/12 03:03:42;;;;;;;6.28;3.38;;;4.10;99.90;;;;;;4883767;29;20037;-78
2021/12/12 03:06:11;;;;;;;8.63;4.00;;;4.10;99.90;;;;;;4869391;29;20057;-78
2021/12/12 03:09:04;;;;;;;6.15;3.97;;;4.00;99.90;;;;;;4882008;29;20082;-81
2021/12/12 03:11:57;;;;;;;6.22;3.38;;;4.00;99.90;;;;;;4881967;29;20076;-80
2021/12/12 03:14:43;;;;;;;7.38;3.97;;;4.00;99.90;;;;;;4869666;29;20399;-79
2021/12/12 03:17:27;;;;;;;8.60;3.85;;;4.00;99.90;;;;;;4871223;29;20036;-79
2021/12/12 03:20:23;;;;;;;6.18;3.75;;;4.00;99.90;;;;;;4880940;29;20121;-79
2021/12/12 03:23:06;;;;;;;5.85;3.10;;;4.00;99.90;;;;;;4888381;29;20059;-79
2021/12/12 03:25:38;;;;;;;8.13;3.92;;;4.00;99.90;;;;;;4906038;29;20096;-80
2021/12/12 03:28:06;;;;;;;6.97;3.70;;;3.90;99.90;;;;;;4890883;29;20371;-79
2021/12/12 03:30:32;;;;;;;6.78;3.55;;;3.90;99.90;;;;;;4891062;29;20081;-79
2021/12/12 03:32:58;;;;;;;5.80;3.00;;;3.70;99.90;;;;;;4892155;29;20024;-80
2021/12/12 03:35:24;;;;;;;8.52;3.00;;;3.50;99.90;;;;;;4891587;29;20036;-79
2021/12/12 03:37:50;;;;;;;5.35;2.67;;;3.20;99.90;;;;;;4890785;29;20055;-80
2021/12/12 03:40:23;;;;;;;6.78;3.20;;;2.90;99.90;;;;;;4890398;29;20033;-81
2021/12/12 03:42:51;;;;;;;8.07;3.80;;;2.80;99.90;;;;;;4879886;29;20203;-79
2021/12/12 03:45:19;;;;;;;8.38;4.30;;;2.60;99.90;;;;;;4887177;29;20044;-80
2021/12/12 03:47:55;;;;;;;5.50;3.55;;;2.50;99.90;;;;;;4887756;29;20101;-81
2021/12/12 03:50:25;;;;;;;9.50;4.07;;;2.50;99.90;;;;;;4872885;29;20029;-81
2021/12/12 03:52:52;;;;;;;5.78;3.90;;;2.70;99.90;;;;;;4873238;29;20044;-80
2021/12/12 03:55:19;;;;;;;7.65;3.85;;;2.80;99.90;;;;;;4874134;29;20043;-80
2021/12/12 03:57:48;;;;;;;7.72;3.95;;;3.00;99.90;;;;;;4895948;29;20042;-80
2021/12/12 04:00:25;;;;;;;7.53;3.33;;;3.10;99.90;;;;;;4875333;29;20037;-80
2021/12/12 04:02:51;;;;;;;7.82;4.43;;;3.10;99.90;;;;;;4872942;29;20041;-80
2021/12/12 04:05:17;;;;;;;7.25;3.33;;;3.20;99.90;;;;;;4872112;29;20048;-81
2021/12/12 04:08:20;;;;;;;6.80;3.40;;;3.20;99.90;;;;;;4872626;29;20030;-80
2021/12/12 04:11:24;;;;;;;8.50;3.80;;;3.20;99.90;;;;;;4887294;29;20041;-80
2021/12/12 04:14:27;;;;;;;5.80;3.22;;;3.10;99.90;;;;;;4873299;29;20041;-80
2021/12/12 04:17:31;;;;;;;6.68;3.15;;;2.80;99.90;;;;;;4887622;29;20058;-79
2021/12/12 04:20:34;;;;;;;5.25;2.90;;;2.60;99.90;;;;;;4872018;29;20343;-81
2021/12/12 04:23:37;;;;;;;5.90;3.50;;;2.30;99.90;;;;;;4874422;29;20056;-79
2021/12/12 04:26:42;;;;;;;8.93;3.67;;;2.10;99.90;;;;;;4891725;29;20048;-80
2021/12/12 04:29:45;;;;;;;9.07;3.47;;;2.00;99.90;;;;;;4890620;29;20316;-80
2021/12/12 04:32:48;;;;;;;6.35;3.35;;;1.80;99.90;;;;;;4905803;29;20327;-80
2021/12/12 04:35:52;;;;;;;8.32;3.85;;;1.80;99.90;;;;;;4891362;29;20039;-80
2021/12/12 04:38:55;;;;;;;7.35;3.80;;;1.80;99.90;;;;;;4891178;29;20033;-81
2021/12/12 04:41:58;;;;;;;7.38;3.50;;;1.70;99.90;;;;;;4890448;29;20037;-80
2021/12/12 04:45:01;;;;;;;7.15;4.45;;;1.70;99.90;;;;;;4900886;29;20033;-79
2021/12/12 04:51:27;;;;;;;9.23;4.38;;;1.60;99.90;;;;;;4890448;29;20251;-80
2021/12/12 04:54:30;;;;;;;9.57;4.15;;;1.60;99.90;;;;;;4904941;29;20327;-80
2021/12/12 04:57:33;;;;;;;8.60;4.57;;;1.50;99.90;;;;;;4890427;29;20175;-80
2021/12/12 05:00:37;;;;;;;7.35;4.28;;;1.40;99.90;;;;;;4890230;29;20033;-79
2021/12/12 05:03:40;;;;;;;8.45;4.47;;;1.40;99.90;;;;;;4890370;29;20037;-78
2021/12/12 05:06:43;;;;;;;9.63;4.07;;;1.40;99.90;;;;;;4890262;29;20046;-79
2021/12/12 05:09:29;;;;;;;8.75;4.10;;;1.40;99.90;;;;;;4886638;29;20331;-79
2021/12/12 05:12:13;;;;;;;7.50;3.92;;;1.40;99.90;;;;;;4885891;29;20026;-78
2021/12/12 05:14:48;;;;;;;9.32;4.50;;;1.30;99.90;;;;;;4870850;29;20041;-80
2021/12/12 05:17:23;;;;;;;7.97;4.07;;;1.30;99.90;;;;;;4871665;29;20149;-80
2021/12/12 05:19:57;;;;;;;6.97;3.83;;;1.40;99.90;;;;;;4885703;29;20041;-78
2021/12/12 05:22:42;;;;;;;7.22;4.15;;;1.40;99.90;;;;;;4870952;29;20316;-79
2021/12/12 05:25:17;;;;;;;8.57;3.75;;;1.50;99.90;;;;;;4874442;29;20033;-79
2021/12/12 05:27:44;;;;;;;9.02;3.65;;;1.70;99.90;;;;;;4871374;29;20120;-79
2021/12/12 05:30:17;;;;;;;6.95;3.75;;;1.70;99.90;;;;;;4870043;29;20300;-78
2021/12/12 05:32:44;;;;;;;7.03;3.28;;;1.80;99.90;;;;;;4870189;29;20036;-78
2021/12/12 05:35:13;;;;;;;7.38;3.38;;;1.90;99.90;;;;;;4871041;29;20073;-79
2021/12/12 05:37:41;;;;;;;6.20;3.72;;;2.10;99.90;;;;;;4870527;29;20030;-79
2021/12/12 05:40:11;;;;;;;7.28;3.83;;;2.10;99.90;;;;;;4869147;29;20220;-80
2021/12/12 05:42:37;;;;;;;7.68;3.47;;;2.10;99.90;;;;;;4885155;29;20364;-79
2021/12/12 05:45:05;;;;;;;6.95;3.50;;;2.10;99.90;;;;;;4869762;29;20324;-80
2021/12/12 05:47:31;;;;;;;6.43;3.50;;;2.10;99.90;;;;;;4873957;29;20312;-79
2021/12/12 05:49:57;;;;;;;7.50;3.47;;;2.20;99.90;;;;;;4871020;29;20033;-79
2021/12/12 05:52:23;;;;;;;7.30;4.00;;;2.20;99.90;;;;;;4870329;29;20029;-79
2021/12/12 05:54:52;;;;;;;9.68;4.10;;;2.20;99.90;;;;;;4870685;29;20034;-79
2021/12/12 05:57:23;;;;;;;7.38;3.55;;;2.20;99.90;;;;;;4870559;29;20037;-79
2021/12/12 05:59:50;;;;;;;6.38;3.53;;;2.30;99.90;;;;;;4870357;29;20029;-78
2021/12/12 06:02:17;;;;;;;5.60;3.40;;;2.30;99.90;;;;;;4885969;29;20314;-79
2021/12/12 06:04:43;;;;;;;5.88;3.28;;;2.40;99.90;;;;;;4888154;29;20067;-79
2021/12/12 06:07:16;;;;;;;5.47;3.70;;;2.50;99.90;;;;;;4883926;29;20035;-81
2021/12/12 06:09:43;;;;;;;5.90;3.30;;;2.50;99.90;;;;;;4884305;29;20093;-80
2021/12/12 06:12:09;;;;;;;5.88;3.08;;;2.50;99.90;;;;;;4884735;29;20026;-79
2021/12/12 06:14:36;;;;;;;6.65;3.70;;;2.50;99.90;;;;;;4869785;29;20057;-79
2021/12/12 06:17:07;;;;;;;5.43;3.22;;;2.60;99.90;;;;;;4884340;29;20037;-79
2021/12/12 06:19:33;;;;;;;5.65;3.38;;;2.60;99.90;;;;;;4902849;29;20056;-80
2021/12/12 06:22:01;;;;;;;6.95;3.30;;;2.50;99.90;;;;;;4887747;29;20334;-79
2021/12/12 06:24:28;;;;;;;5.95;3.28;;;2.50;99.90;;;;;;4888260;29;20121;-79
2021/12/12 06:26:57;;;;;;;6.90;4.07;;;2.60;99.90;;;;;;4902188;29;20085;-79
2021/12/12 06:29:23;;;;;;;5.55;3.47;;;2.50;99.90;;;;;;4898957;29;20037;-79
2021/12/12 06:31:52;;;;;;;7.30;3.58;;;2.30;99.90;;;;;;4869766;29;20065;-80
2021/12/12 06:34:18;;;;;;;6.93;3.58;;;2.30;99.90;;;;;;4868918;29;20346;-79
2021/12/12 06:36:48;;;;;;;7.45;3.67;;;2.10;99.90;;;;;;4883849;29;20028;-79
2021/12/12 06:39:14;;;;;;;6.57;3.75;;;2.10;99.90;;;;;;4888368;29;20362;-79
2021/12/12 06:41:42;;;;;;;6.32;4.05;;;2.00;99.90;;;;;;4887884;29;20315;-80
2021/12/12 06:44:10;;;;;;;6.85;3.95;;;2.00;99.90;;;;;;4888593;29;20041;-80
2021/12/12 06:46:37;;;;;;;6.57;4.10;;;1.90;99.90;;;;;;4887345;29;20052;-80
2021/12/12 06:49:07;;;;;;;6.43;4.40;;;1.80;99.90;;;;;;4888481;29;20084;-79
2021/12/12 06:51:41;;;;;;;6.43;4.25;;;1.70;99.90;;;;;;4888414;29;20385;-80
2021/12/12 06:54:07;;;;;;;7.55;5.05;;;1.60;99.90;;;;;;4888733;29;20041;-79
2021/12/12 06:56:34;;;;;;;7.63;4.30;;;1.40;99.90;;;;;;4887084;29;20209;-80
2021/12/12 06:59:01;;;;;;;8.52;4.95;;;1.40;99.90;;;;;;4902823;29;20076;-79
2021/12/12 07:01:30;;;;;;;8.50;4.82;;;1.40;99.90;;;;;;4886354;29;20037;-80
2021/12/12 07:03:56;;;;;;;7.85;4.63;;;1.40;99.90;;;;;;4887316;29;20220;-79
2021/12/12 07:06:25;;;;;;;12.20;5.50;;;1.30;99.90;;;;;;4889493;29;20037;-78
2021/12/12 07:08:52;;;;;;;8.35;4.82;;;1.30;99.90;;;;;;4894850;29;20017;-78
2021/12/12 07:11:21;;;;;;;8.27;5.03;;;1.20;99.90;;;;;;4893478;29;20029;-78
2021/12/12 07:13:50;;;;;;;9.55;5.15;;;1.10;99.90;;;;;;4869428;29;20057;-78
2021/12/12 07:16:19;;;;;;;9.98;5.90;;;1.10;99.90;;;;;;4868136;29;20077;-79
2021/12/12 07:18:47;;;;;;;7.85;5.50;;;1.00;99.90;;;;;;4869383;29;20073;-78
2021/12/12 07:21:18;;;;;;;9.02;5.18;;;1.10;99.90;;;;;;4869911;29;20057;-79
2021/12/12 07:23:47;;;;;;;8.30;5.32;;;1.00;99.90;;;;;;4868276;29;20045;-78
2021/12/12 07:26:15;;;;;;;10.15;6.18;;;1.00;99.90;;;;;;4883972;29;20025;-78
2021/12/12 07:28:45;;;;;;;8.07;5.07;;;1.00;99.90;;;;;;4869449;29;20313;-77
2021/12/12 07:31:19;;;;;;;9.23;5.53;;;1.00;99.90;;;;;;4898523;29;20085;-78
2021/12/12 07:33:50;;;;;;;9.85;5.60;;;1.00;99.90;;;;;;4887701;29;20295;-77
2021/12/12 07:36:19;;;;;;;8.32;5.00;;;1.00;99.90;;;;;;4887258;29;20092;-78
2021/12/12 07:38:48;;;;;;;11.48;6.03;;;1.10;99.90;;;;;;4887532;29;20548;-79
2021/12/12 07:41:18;;;;;;;9.50;5.22;;;1.10;99.90;;;;;;4886402;29;20044;-78
2021/12/12 07:43:52;;;;;;;9.00;5.20;;;1.20;99.90;;;;;;4887718;29;20037;-78
2021/12/12 07:46:19;;;;;;;9.02;5.70;;;1.10;99.90;;;;;;4887546;29;20055;-79
2021/12/12 07:48:50;;;;;;;12.10;5.85;;;1.20;99.90;;;;;;4870967;29;20334;-78
2021/12/12 07:51:16;;;;;;;10.38;5.68;;;1.30;99.90;;;;;;4899296;29;20025;-78
2021/12/12 07:53:42;;;;;;;10.18;5.70;;;1.30;99.90;;;;;;4902051;29;20132;-80
2021/12/12 07:56:09;;;;;;;9.57;5.25;;;1.40;99.90;;;;;;4887916;29;20028;-79
2021/12/12 07:58:38;;;;;;;10.27;6.22;;;1.40;99.90;;;;;;4887469;29;20318;-78
2021/12/12 08:01:04;;;;;;;;;;;1.60;99.90;;;;;;4887742;29;20040;-78
2021/12/12 08:03:36;;;;;;;8.65;5.50;;;1.80;99.90;;;;;;4905220;29;19907;-79
2021/12/12 08:06:02;;;;;;;10.70;5.60;;;2.00;99.90;;;;;;4891735;29;20037;-79
2021/12/12 08:08:32;;;;;;;8.40;4.82;;;2.20;99.90;;;;;;4889516;29;20100;-77
2021/12/12 08:10:58;;;;;;;7.93;4.38;;;2.40;99.90;;;;;;4903970;29;20020;-78
2021/12/12 08:13:24;;;;;;;8.40;4.07;;;2.60;99.90;;;;;;4872546;29;20065;-79
2021/12/12 08:15:51;;;;;;;8.63;4.05;;;2.90;99.90;;;;;;4870279;29;20048;-77
2021/12/12 08:18:18;;;;;;;6.55;3.88;;;3.20;99.90;;;;;;4871263;29;20029;-79
2021/12/12 08:20:46;;;;;;;5.60;3.22;;;3.40;99.90;;;;;;4871952;29;20101;-78
2021/12/12 08:23:14;;;;;;;4.78;2.97;;;3.60;99.90;;;;;;4871487;29;20064;-78
2021/12/12 08:25:41;;;;;;;5.20;2.53;;;3.80;99.90;;;;;;4870826;29;20082;-77
2021/12/12 08:28:09;;;;;;;3.75;2.45;;;3.90;99.90;;;;;;4871402;29;20037;-80
2021/12/12 08:30:37;;;;;;;4.95;2.92;;;4.00;99.90;;;;;;4870396;29;20041;-79
2021/12/12 08:33:05;;;;;;;5.75;2.10;;;4.20;99.90;;;;;;4875482;29;20343;-80
2021/12/12 08:35:32;;;;;;;4.30;2.58;;;4.20;99.90;;;;;;4870321;29;20041;-80
2021/12/12 08:38:02;;;;;;;3.85;2.17;;;4.20;99.90;;;;;;4871035;29;20327;-79
2021/12/12 08:40:33;;;;;;;4.80;2.50;;;4.20;99.90;;;;;;4872249;29;20096;-79
2021/12/12 08:43:00;;;;;;;3.97;2.28;;;4.20;99.90;;;;;;4871909;29;20029;-79
2021/12/12 08:45:32;;;;;;;4.35;2.22;;;4.40;99.90;;;;;;4870573;29;20066;-79
2021/12/12 08:48:00;;;;;;;3.03;1.70;;;4.30;99.90;;;;;;4873010;29;20021;-78
2021/12/12 08:50:29;;;;;;;3.75;2.08;;;4.20;99.90;;;;;;4873429;29;20324;-79
2021/12/12 08:52:59;;;;;;;3.72;2.17;;;4.20;99.90;;;;;;4870634;29;20041;-79
2021/12/12 08:55:36;;;;;;;4.70;2.20;;;4.20;99.90;;;;;;4871867;29;20103;-78
2021/12/12 08:58:15;;;;;;;3.97;2.03;;;4.20;99.90;;;;;;4855399;29;20025;-80
2021/12/12 09:00:46;;;;;;;4.43;2.33;;;4.30;99.90;;;;;;4870398;29;20061;-78
2021/12/12 09:03:17;;;;;;;4.90;2.65;;;4.40;99.90;;;;;;4870247;29;20030;-78
2021/12/12 09:05:44;;;;;;;5.90;2.72;;;4.50;99.90;;;;;;4871330;29;20047;-79
2021/12/12 09:08:18;;;;;;;4.07;2.53;;;4.50;99.90;;;;;;4870313;29;20032;-78
2021/12/12 09:10:50;;;;;;;4.18;2.88;;;4.50;99.90;;;;;;4888134;29;20029;-79
2021/12/12 09:13:23;;;;;;;5.28;2.65;;;4.60;99.90;;;;;;4904165;29;20037;-80
2021/12/12 09:16:04;;;;;;;3.10;2.00;;;4.50;99.90;;;;;;4886775;29;20300;-79
2021/12/12 09:18:38;;;;;;;12.45;7.47;;;4.50;99.90;;;;;;4886667;29;20029;-78
2021/12/12 09:21:11;;;;;;;6.05;3.80;;;4.60;99.90;;;;;;4842986;29;20053;-77
2021/12/12 09:23:48;;;;;;;4.93;2.78;;;4.60;99.90;;;;;;4837299;29;20139;-79
2021/12/12 09:26:21;;;;;;;5.07;2.75;;;4.70;99.90;;;;;;4848626;29;20054;-79
2021/12/12 09:29:01;;;;;;;4.78;2.50;;;4.70;99.90;;;;;;4848410;29;20049;-81
2021/12/12 09:31:59;;;;;;;4.25;2.50;;;4.60;99.90;;;;;;4847395;29;20225;-82
2021/12/12 09:34:33;;;;;;;4.15;2.67;;;4.70;99.90;;;;;;4833545;29;20038;-79
2021/12/12 09:37:09;;;;;;;4.00;2.70;;;4.70;99.90;;;;;;4848211;29;20034;-77
2021/12/12 09:39:44;;;;;;;4.43;2.90;;;4.70;99.90;;;;;;4850702;29;20038;-78
2021/12/12 09:42:49;;;;;;;4.55;2.50;;;5.00;99.90;;;;;;4850810;29;20025;-78
2021/12/12 09:45:46;;;;;;;3.60;2.20;;;5.20;99.90;;;;;;4851460;29;20357;-80
2021/12/12 09:51:14;;;;;;;4.43;2.80;;;5.30;99.90;;;;;;4835619;29;20038;-80
2021/12/12 09:51:29;;;;;;;4.90;2.38;;;5.50;99.90;;;;;;4851987;29;20399;-79
2021/12/12 09:54:17;;;;;;;4.72;2.67;;;5.70;99.90;;;;;;4850443;29;20265;-79
2021/12/12 09:56:58;;;;;;;5.95;3.10;;;5.90;99.90;;;;;;4849144;29;20030;-80
2021/12/12 09:59:39;;;;;;;4.88;2.22;;;6.10;99.90;;;;;;4851640;29;20038;-78
2021/12/12 10:02:07;;;;;;;3.30;1.92;;;6.40;99.90;;;;;;4864400;29;20247;-77
2021/12/12 10:04:50;;;;;;;3.40;2.10;;;6.70;99.90;;;;;;4865878;29;20041;-77
2021/12/12 10:07:15;;;;;;;4.15;2.35;;;6.80;99.90;;;;;;4866131;29;20151;-77
2021/12/12 10:09:55;;;;;;;3.50;1.95;;;6.70;99.90;;;;;;4851571;29;20068;-78
2021/12/12 10:12:26;;;;;;;3.75;2.00;;;6.40;99.90;;;;;;4865800;29;20120;-75
2021/12/12 10:14:57;;;;;;;4.53;2.40;;;6.20;99.90;;;;;;4851608;29;20060;-78
2021/12/12 10:17:43;;;;;;;3.40;1.75;;;6.10;99.90;;;;;;4851154;29;20113;-77
2021/12/12 10:20:33;;;;;;;4.57;2.15;;;6.10;99.90;;;;;;4875392;29;20059;-78
2021/12/12 10:23:27;;;;;;;4.35;2.38;;;6.30;99.90;;;;;;4888428;29;20104;-77
2021/12/12 10:26:00;;;;;;;3.75;2.20;;;6.40;99.90;;;;;;4902899;29;20037;-79
2021/12/12 10:28:54;;;;;;;3.38;1.95;;;6.40;99.90;;;;;;4902515;29;20279;-78
2021/12/12 10:31:30;;;;;;;4.40;2.22;;;6.60;99.90;;;;;;4880044;29;20041;-78
2021/12/12 10:34:09;;;;;;;2.95;1.67;;;6.80;99.90;;;;;;4888434;29;20045;-80
2021/12/12 10:36:42;;;;;;;5.00;2.20;;;6.70;99.90;;;;;;4889529;29;20029;-79
2021/12/12 10:39:12;;;;;;;3.67;1.90;;;6.50;99.90;;;;;;4892808;29;20020;-75
2021/12/12 10:41:45;;;;;;;3.10;1.80;;;6.60;99.90;;;;;;4895826;29;20032;-76
2021/12/12 10:44:22;;;;;;;3.75;1.80;;;6.60;99.90;;;;;;4910670;29;20069;-78
2021/12/12 10:46:54;;;;;;;4.97;1.90;;;6.80;99.90;;;;;;4870332;29;20093;-79
2021/12/12 10:49:25;;;;;;;4.47;2.10;;;6.60;99.90;;;;;;4886896;29;20048;-79
2021/12/12 10:52:02;;;;;;;2.28;1.40;;;6.80;99.90;;;;;;4882655;29;20032;-80
2021/12/12 10:54:53;;;;;;;3.88;1.90;;;7.00;99.90;;;;;;4883630;29;20112;-79
2021/12/12 10:57:31;;;;;;;5.28;2.15;;;7.20;99.90;;;;;;4887334;29;20260;-78
2021/12/12 11:00:09;;;;;;;7.25;2.83;;;7.30;99.90;;;;;;4887606;29;20067;-79
2021/12/12 11:02:44;;;;;;;9.57;6.93;;;7.40;99.90;;;;;;4869498;29;20257;-78
2021/12/12 11:05:14;;;;;;;5.95;2.05;;;7.30;99.90;;;;;;4869288;29;20138;-79
2021/12/12 11:07:58;;;;;;;4.03;2.25;;;7.50;99.90;;;;;;4869433;29;20233;-77
2021/12/12 11:10:32;;;;;;;3.25;2.00;;;7.80;99.90;;;;;;4861901;29;20249;-79
2021/12/12 11:13:04;;;;;;;5.28;2.03;;;7.70;99.90;;;;;;4850822;29;20394;-78
2021/12/12 11:15:44;;;;;;;3.63;1.67;;;7.60;99.90;;;;;;4853042;29;20048;-81
2021/12/12 11:18:18;;;;;;;3.45;1.92;;;8.00;99.90;;;;;;4869863;29;20100;-77
2021/12/12 11:20:51;;;;;;;2.95;1.48;;;8.10;99.90;;;;;;4869362;29;20057;-77
2021/12/12 11:23:34;;;;;;;3.53;1.58;;;8.10;99.90;;;;;;4869776;29;20025;-77
2021/12/12 11:26:15;;;;;;;3.97;1.50;;;8.20;99.90;;;;;;4868119;29;20118;-80
2021/12/12 11:28:46;;;;;;;2.67;1.30;;;8.30;99.90;;;;;;4884979;29;20025;-78
2021/12/12 11:31:18;;;;;;;4.53;1.85;;;7.80;99.90;;;;;;4887176;29;20268;-78
2021/12/12 11:33:48;;;;;;;2.85;1.45;;;7.70;99.90;;;;;;4868222;29;20078;-77
2021/12/12 11:36:18;;;;;;;2.35;1.20;;;7.80;99.90;;;;;;4880078;29;20056;-78
2021/12/12 11:39:13;;;;;;;3.80;1.65;;;7.70;99.90;;;;;;4889943;29;20189;-79
2021/12/12 11:42:26;;;;;;;2.67;1.40;;;7.70;99.90;;;;;;4890948;29;20033;-79
2021/12/12 11:45:03;;;;;;;3.28;1.30;;;7.80;99.90;;;;;;4871239;29;20068;-77
2021/12/12 11:48:09;;;;;;;3.50;1.17;;;7.80;99.90;;;;;;4896380;29;20045;-78
2021/12/12 11:51:13;;;;;;;4.93;1.60;;;7.90;99.90;;;;;;4890277;29;20397;-78
2021/12/12 11:53:48;;;;;;;4.28;1.45;;;8.10;99.90;;;;;;4890095;29;20104;-77
2021/12/12 11:56:45;;;;;;;4.53;1.90;;;8.00;99.90;;;;;;4871853;29;20053;-77
2021/12/12 11:59:54;;;;;;;5.10;1.60;;;7.80;99.90;;;;;;4896477;29;20033;-80
2021/12/12 12:02:37;;;;;;;3.97;1.42;;;7.80;99.90;;;;;;4890584;29;20064;-79
2021/12/12 12:05:24;;;;;;;3.78;1.20;;;8.00;99.90;;;;;;4877997;29;20037;-80
2021/12/12 12:08:02;;;;;;;3.22;1.30;;;8.40;99.90;;;;;;4882731;29;20073;-79
2021/12/12 12:10:34;;;;;;;8.07;1.92;;;8.90;99.90;;;;;;4891300;29;20032;-79
2021/12/12 12:13:37;;;;;;;3.47;1.38;;;9.00;99.90;;;;;;4887002;29;20017;-78
2021/12/12 12:16:14;;;;;;;5.45;1.50;;;8.80;99.90;;;;;;4871433;29;20314;-80
2021/12/12 12:18:59;;;;;;;3.22;1.10;;;8.60;99.90;;;;;;4872392;29;20097;-80
2021/12/12 12:21:52;;;;;;;2.85;1.20;;;8.90;99.90;;;;;;4872880;29;20074;-79
2021/12/12 12:24:57;;;;;;;2.88;1.23;;;8.80;99.90;;;;;;4878320;29;20037;-79
2021/12/12 12:27:35;;;;;;;2.30;1.25;;;9.10;99.90;;;;;;4836684;29;20045;-78
2021/12/12 12:30:00;;;;;;;3.92;1.42;;;9.80;99.90;;;;;;4836243;29;20040;-80
2021/12/12 12:33:07;;;;;;;6.10;1.90;;;9.70;99.90;;;;;;4851664;29;20046;-78
2021/12/12 12:36:10;;;;;;;2.63;1.00;;;9.70;99.90;;;;;;4800359;29;20049;-79
2021/12/12 12:39:12;;;;;;;2.60;1.10;;;9.60;99.90;;;;;;4815522;29;20119;-79
2021/12/12 12:41:56;;;;;;;3.67;1.10;;;9.80;99.90;;;;;;4815464;29;20391;-79
2021/12/12 12:44:59;;;;;;;2.30;1.00;;;9.50;99.90;;;;;;4815202;29;20049;-79
2021/12/12 12:47:52;;;;;;;2.05;1.02;;;9.40;99.90;;;;;;4814225;29;20047;-79
2021/12/12 12:50:39;;;;;;;3.72;1.30;;;9.30;99.90;;;;;;4814922;29;20045;-77
2021/12/12 12:53:26;;;;;;;4.77;1.43;;;8.90;99.90;;;;;;4814609;29;20035;-78
2021/12/12 12:56:18;;;;;;;3.22;1.50;;;8.70;99.90;;;;;;4831437;29;20257;-78
2021/12/12 12:59:18;;;;;;;3.63;1.40;;;8.60;99.90;;;;;;4825150;29;20332;-79
2021/12/12 13:01:49;;;;;;;5.05;1.52;;;8.50;99.90;;;;;;4834964;29;20057;-80
2021/12/12 13:04:39;;;;;;;3.95;1.85;;;8.50;99.90;;;;;;4862187;29;20093;-78
2021/12/12 13:07:14;;;;;;;3.38;1.20;;;8.60;99.90;;;;;;4870361;29;20303;-77
2021/12/12 13:10:04;;;;;;;2.30;1.20;;;8.70;99.90;;;;;;4871527;29;20037;-77
2021/12/12 13:12:48;;;;;;;4.30;1.63;;;8.50;99.90;;;;;;4871432;29;20323;-78
2021/12/12 13:15:34;;;;;;;4.07;1.30;;;8.50;99.90;;;;;;4870408;29;20030;-79
2021/12/12 13:18:15;;;;;;;2.63;1.30;;;8.80;99.90;;;;;;4889328;29;20041;-79
2021/12/12 13:21:08;;;;;;;3.75;1.48;;;8.80;99.90;;;;;;4889240;29;20053;-77
2021/12/12 13:24:06;;;;;;;2.88;1.40;;;9.00;99.90;;;;;;4892157;29;20059;-78
2021/12/12 13:26:53;;;;;;;4.75;1.60;;;8.90;99.90;;;;;;4891134;29;20052;-79
2021/12/12 13:29:56;;;;;;;3.40;1.65;;;8.80;99.90;;;;;;4889211;29;20108;-80
2021/12/12 13:32:28;;;;;;;2.70;1.17;;;8.40;99.90;;;;;;4882596;29;20041;-77
2021/12/12 13:35:27;;;;;;;3.70;1.42;;;8.10;99.90;;;;;;4870015;29;20228;-78
2021/12/12 13:38:01;;;;;;;2.70;1.48;;;8.00;99.90;;;;;;4856019;29;20211;-79
2021/12/12 13:41:04;;;;;;;3.55;1.55;;;8.00;99.90;;;;;;4880511;29;20037;-79
2021/12/12 13:43:45;;;;;;;2.90;1.23;;;7.80;99.90;;;;;;4889265;29;20039;-79
2021/12/12 13:46:42;;;;;;;3.40;1.40;;;7.80;99.90;;;;;;4888080;29;20045;-79
2021/12/12 13:49:13;;;;;;;2.65;1.38;;;7.70;99.90;;;;;;4903646;29;20044;-79
2021/12/12 13:51:57;;;;;;;5.05;1.52;;;7.70;99.90;;;;;;4888160;29;20313;-78
2021/12/12 13:54:30;;;;;;;3.20;1.38;;;7.60;99.90;;;;;;4900904;29;20064;-78
2021/12/12 13:57:07;;;;;;;3.97;1.70;;;7.60;99.90;;;;;;4888654;29;20037;-78
2021/12/12 13:59:33;;;;;;;4.10;1.77;;;7.50;99.90;;;;;;4889450;29;20073;-79
2021/12/12 14:02:02;;;;;;;3.85;1.42;;;7.50;99.90;;;;;;4886837;29;20041;-78
2021/12/12 14:04:37;;;;;;;2.33;1.17;;;7.30;99.90;;;;;;4889338;29;20303;-78